createdAt,value
2018-07-09T00:02:07.569Z,81.79
2018-07-09T00:04:36.805Z,82.19
2018-07-09T00:07:06.177Z,82.28
2018-07-09T00:09:35.721Z,81.94
2018-07-09T00:12:04.900Z,82.49
2018-07-09T00:14:34.146Z,82.29
2018-07-09T00:17:03.437Z,82.02
2018-07-09T00:19:33.034Z,82.78
2018-07-09T00:22:02.270Z,82.76
2018-07-09T00:24:31.518Z,82.79
2018-07-09T00:27:00.691Z,83.48
2018-07-09T00:29:29.891Z,83.03
2018-07-09T00:31:59.171Z,84.17
2018-07-09T00:34:28.433Z,83.71
2018-07-09T00:36:57.656Z,84.26
2018-07-09T00:39:26.911Z,84.04
2018-07-09T00:41:56.241Z,84.43
2018-07-09T00:44:26.230Z,85.31
2018-07-09T00:46:55.489Z,84.79
2018-07-09T00:49:24.814Z,85.50
2018-07-09T00:51:54.329Z,84.82
2018-07-09T00:54:23.976Z,84.74
2018-07-09T00:56:53.766Z,85.00
2018-07-09T00:59:23.080Z,85.12
2018-07-09T01:01:52.563Z,85.45
2018-07-09T01:04:22.853Z,85.75
2018-07-09T01:06:52.164Z,85.36
2018-07-09T01:09:21.514Z,85.58
2018-07-09T01:12:25.996Z,85.71
2018-07-09T01:14:55.225Z,85.67
2018-07-09T01:17:24.493Z,86.17
2018-07-09T01:19:53.847Z,86.65
2018-07-09T01:22:23.251Z,87.42
2018-07-09T01:24:52.510Z,86.92
2018-07-09T01:27:21.909Z,87.50
2018-07-09T01:29:51.241Z,87.87
2018-07-09T01:32:20.429Z,87.44
2018-07-09T01:34:49.760Z,87.17
2018-07-09T01:37:19.056Z,86.83
2018-07-09T01:39:48.376Z,87.17
2018-07-09T01:42:18.021Z,86.51
2018-07-09T01:44:47.271Z,86.68
2018-07-09T01:47:16.982Z,86.77
2018-07-09T01:49:46.188Z,86.63
2018-07-09T01:52:15.482Z,86.25
2018-07-09T01:54:44.635Z,86.40
2018-07-09T01:57:13.849Z,86.58
2018-07-09T01:59:43.082Z,86.99
2018-07-09T02:02:12.381Z,86.81
2018-07-09T02:04:41.692Z,86.62
2018-07-09T02:07:11.336Z,86.68
2018-07-09T02:09:40.601Z,86.78
2018-07-09T02:12:09.773Z,87.04
2018-07-09T02:14:38.978Z,86.48
2018-07-09T02:17:08.522Z,87.37
2018-07-09T02:19:38.705Z,87.59
2018-07-09T02:22:07.925Z,87.60
2018-07-09T02:24:37.502Z,87.89
2018-07-09T02:27:07.798Z,88.11
2018-07-09T02:29:37.025Z,88.20
2018-07-09T02:32:06.392Z,88.01
2018-07-09T02:34:35.686Z,88.16
2018-07-09T02:37:05.001Z,88.32
2018-07-09T02:39:34.263Z,88.31
2018-07-09T02:42:03.507Z,89.15
2018-07-09T02:44:33.546Z,89.91
2018-07-09T02:47:02.778Z,89.11
2018-07-09T02:49:32.035Z,89.02
2018-07-09T02:52:01.349Z,88.71
2018-07-09T02:54:30.629Z,89.24
2018-07-09T02:56:59.835Z,89.31
2018-07-09T02:59:29.026Z,89.24
2018-07-09T03:01:58.520Z,89.09
2018-07-09T03:04:27.761Z,89.75
2018-07-09T03:06:57.134Z,90.18
2018-07-09T03:09:26.386Z,90.44
2018-07-09T03:11:55.568Z,90.78
2018-07-09T03:14:24.770Z,90.82
2018-07-09T03:16:54.007Z,90.25
2018-07-09T03:19:23.294Z,90.38
2018-07-09T03:21:52.500Z,90.57
2018-07-09T03:24:21.685Z,90.35
2018-07-09T03:26:50.895Z,90.08
2018-07-09T03:29:20.133Z,90.20
2018-07-09T03:31:49.356Z,89.79
2018-07-09T03:34:18.678Z,89.30
2018-07-09T03:36:47.984Z,89.06
2018-07-09T03:39:17.174Z,89.08
2018-07-09T03:41:46.403Z,89.20
2018-07-09T03:44:17.425Z,88.31
2018-07-09T03:46:46.616Z,88.49
2018-07-09T03:49:15.905Z,88.08
2018-07-09T03:51:45.143Z,88.91
2018-07-09T03:54:14.387Z,88.14
2018-07-09T03:56:43.620Z,88.21
2018-07-09T03:59:12.847Z,88.73
2018-07-09T04:01:42.034Z,88.75
2018-07-09T04:04:11.290Z,88.25
2018-07-09T04:06:40.520Z,87.92
2018-07-09T04:09:09.764Z,88.10
2018-07-09T04:11:39.077Z,88.47
2018-07-09T04:14:08.450Z,88.36
2018-07-09T04:16:37.662Z,88.46
2018-07-09T04:19:07.094Z,88.10
2018-07-09T04:21:36.305Z,89.31
2018-07-09T04:24:05.530Z,89.12
2018-07-09T04:26:34.823Z,88.55
2018-07-09T04:29:04.054Z,88.10
2018-07-09T04:31:33.358Z,88.17
2018-07-09T04:34:02.583Z,87.85
2018-07-09T04:36:31.809Z,87.35
2018-07-09T04:39:10.949Z,87.85
2018-07-09T04:41:40.598Z,87.45
2018-07-09T04:44:09.814Z,87.02
2018-07-09T04:46:39.036Z,87.28
2018-07-09T04:49:10.169Z,87.20
2018-07-09T04:51:39.462Z,86.37
2018-07-09T04:54:08.750Z,86.08
2018-07-09T04:56:38.007Z,86.36
2018-07-09T04:59:07.373Z,86.15
2018-07-09T05:01:36.639Z,85.99
2018-07-09T05:04:05.907Z,85.80
2018-07-09T05:06:35.118Z,85.62
2018-07-09T05:09:05.258Z,85.39
2018-07-09T05:11:34.519Z,85.09
2018-07-09T05:14:03.821Z,85.41
2018-07-09T05:16:33.154Z,85.24
2018-07-09T05:19:02.476Z,85.15
2018-07-09T05:21:31.865Z,84.93
2018-07-09T05:24:01.051Z,84.49
2018-07-09T05:26:30.373Z,84.21
2018-07-09T05:28:59.561Z,82.83
2018-07-09T05:31:28.870Z,83.75
2018-07-09T05:33:58.048Z,83.02
2018-07-09T05:36:29.189Z,82.39
2018-07-09T05:38:58.665Z,82.04
2018-07-09T05:41:27.987Z,81.82
2018-07-09T05:43:57.666Z,81.75
2018-07-09T05:46:27.843Z,80.90
2018-07-09T05:48:58.161Z,79.58
2018-07-09T05:51:27.434Z,79.28
2018-07-09T05:53:56.632Z,78.48
2018-07-09T05:56:25.904Z,77.63
2018-07-09T05:58:55.519Z,77.75
2018-07-09T06:01:25.144Z,77.10
2018-07-09T06:03:54.455Z,76.50
2018-07-09T06:06:23.744Z,75.47
2018-07-09T06:08:53.080Z,74.94
2018-07-09T06:11:22.509Z,75.66
2018-07-09T06:13:52.067Z,76.46
2018-07-09T06:16:21.516Z,74.84
2018-07-09T06:18:50.976Z,75.35
2018-07-09T06:21:20.270Z,74.50
2018-07-09T06:23:49.500Z,75.67
2018-07-09T06:26:18.865Z,74.58
2018-07-09T06:28:48.413Z,73.28
2018-07-09T06:31:18.510Z,74.25
2018-07-09T06:33:47.973Z,73.80
2018-07-09T06:36:17.206Z,73.89
2018-07-09T06:38:46.581Z,72.18
2018-07-09T06:41:15.916Z,73.02
2018-07-09T06:43:45.815Z,71.48
2018-07-09T06:46:15.172Z,71.10
2018-07-09T06:48:44.518Z,71.71
2018-07-09T06:51:13.831Z,71.29
2018-07-09T06:53:43.112Z,71.39
2018-07-09T06:56:12.474Z,72.19
2018-07-09T06:58:41.701Z,70.82
2018-07-09T07:01:10.907Z,69.72
2018-07-09T07:03:41.847Z,70.14
2018-07-09T07:06:16.389Z,70.27
2018-07-09T07:08:45.750Z,70.03
2018-07-09T07:11:14.984Z,69.85
2018-07-09T07:13:44.335Z,69.23
2018-07-09T07:16:13.697Z,69.83
2018-07-09T07:18:42.967Z,69.50
2018-07-09T07:21:12.340Z,68.32
2018-07-09T07:23:41.706Z,68.71
2018-07-09T07:26:10.977Z,69.80
2018-07-09T07:28:40.256Z,69.50
2018-07-09T07:31:09.998Z,70.22
2018-07-09T07:33:39.356Z,71.58
2018-07-09T07:36:08.683Z,70.68
2018-07-09T07:38:37.984Z,70.82
2018-07-09T07:41:07.375Z,70.07
2018-07-09T07:43:36.530Z,69.65
2018-07-09T07:46:05.815Z,68.93
2018-07-09T07:48:35.018Z,69.66
2018-07-09T07:51:04.224Z,70.59
2018-07-09T07:53:33.787Z,70.07
2018-07-09T07:56:03.021Z,69.68
2018-07-09T07:58:32.220Z,71.00
2018-07-09T08:01:01.449Z,70.01
2018-07-09T08:03:31.650Z,70.12
2018-07-09T08:06:00.903Z,70.83
2018-07-09T08:08:30.243Z,69.63
2018-07-09T08:11:10.909Z,69.18
2018-07-09T08:13:29.348Z,69.99
2018-07-09T08:15:58.026Z,70.68
2018-07-09T08:18:27.314Z,69.92
2018-07-09T08:20:56.537Z,70.40
2018-07-09T08:23:26.776Z,69.85
2018-07-09T08:25:56.672Z,68.71
2018-07-09T08:28:26.234Z,67.97
2018-07-09T08:30:56.152Z,68.45
2018-07-09T08:33:25.320Z,68.00
2018-07-09T08:35:54.789Z,69.38
2018-07-09T08:38:24.390Z,67.50
2018-07-09T08:40:53.649Z,68.74
2018-07-09T08:43:23.179Z,69.45
2018-07-09T08:45:52.441Z,68.69
2018-07-09T08:48:21.776Z,67.96
2018-07-09T08:50:51.037Z,67.75
2018-07-09T08:53:20.714Z,65.66
2018-07-09T08:55:50.307Z,65.89
2018-07-09T08:58:19.754Z,67.11
2018-07-09T09:00:49.035Z,65.88
2018-07-09T09:03:18.244Z,65.33
2018-07-09T09:05:47.559Z,65.25
2018-07-09T09:08:16.894Z,63.23
2018-07-09T09:10:46.563Z,64.72
2018-07-09T09:13:15.832Z,64.47
2018-07-09T09:15:45.166Z,65.53
